Forside
METAR-TAF:

METAR-TAF

Lufthavne :

Grise Fiord, Nunavut, Canada

Breddekreds: 76-25N, længdekreds: 082-54W, højde: 45 m

Aktuelle vejr

Denne rapport blev lavet for 3 timer og 37 minutter siden, kl. 20:00 UTC
Vind 3 kt fra nordnordøst, varierende mellem nordnordøst og østsydøst
Temperatur -13°C
Fugtighed 61%
Tryk 1008 hPa
Sigt: 24.1 km
Nogle få skyer i en højde af 1100 ft
Nogle få skyer i en højde af 3100 ft
Nogle få skyer i en højde af 8400 ft
Spredte skyer i en højde af 21000 ft

METAR: CWGZ 192000Z 03003KT 020V120 15SM FEW011 FEW031 FEW084 SCT210 M13/M19 A2976 RMK SF1SC1AC1CI2 AC TR -11/-14.9/0/3 SNW CVR/ LAST STFD OB/NEXT 201200Z SLP086

Tid: 19:37 (23:37 UTC)


TAF: fraværende

Vejrobservationer og prognoser fra mere end 4000 lufthavne (METAR og TAF).

De gule og røde prikker repræsenterer de meteorologiske stationer.

Flyt musen over at se navnet på stationen.

Så klik over at se vejr observationer og prognoser.

At skifte det kort: Klik på de grønne knapper med et sort kors for at zoome ind; på den grønne knap med en bindestreg for at zoome ud; eller på de grønne pile for tilstødende kort.


METAR-TAF: